Time;durP1;ratioP1;P1;durP2;ratioP2;P2;SDS_P1;SDS_P2;PMS_P1;PMS_P2;Temp;Humidity;BMP_temperature;BMP_pressure;BME280_temperature;BME280_humidity;BME280_pressure;Samples;Min_cycle;Max_cycle;Signal;HPM_P1;HPM_P2
2021/01/31 00:01:34;;;;;;;21.88;13.85;;;;;;;2.79;100.00;98853.88;5075261;28;20128;-69
2021/01/31 00:04:18;;;;;;;20.80;13.38;;;;;;;2.72;100.00;98843.06;5059989;28;20051;-70
2021/01/31 00:07:04;;;;;;;21.98;13.93;;;;;;;2.69;100.00;98845.94;5074298;28;20043;-70
2021/01/31 00:09:49;;;;;;;22.88;14.35;;;;;;;2.71;100.00;98848.47;5075351;28;20086;-71
2021/01/31 00:12:34;;;;;;;20.75;13.10;;;;;;;2.69;100.00;98845.94;5073223;28;20491;-70
2021/01/31 00:15:20;;;;;;;20.27;13.70;;;;;;;2.63;100.00;98845.63;5073534;28;20051;-70
2021/01/31 00:18:06;;;;;;;24.25;13.55;;;;;;;2.63;100.00;98849.09;5073786;28;20047;-70
2021/01/31 00:20:52;;;;;;;21.73;13.20;;;;;;;2.69;100.00;98839.84;5074854;28;20043;-71
2021/01/31 00:23:36;;;;;;;22.65;13.55;;;;;;;2.66;100.00;98840.97;5073394;28;20105;-70
2021/01/31 00:26:20;;;;;;;22.02;13.45;;;;;;;2.68;100.00;98832.91;5073838;28;20055;-70
2021/01/31 00:29:04;;;;;;;24.25;14.82;;;;;;;2.65;100.00;98838.44;5074977;28;20135;-70
2021/01/31 00:31:48;;;;;;;26.13;14.85;;;;;;;2.69;100.00;98842.47;5073502;28;20095;-70
2021/01/31 00:34:32;;;;;;;24.20;14.15;;;;;;;2.71;100.00;98849.28;5059247;28;20044;-71
2021/01/31 00:37:17;;;;;;;23.83;13.57;;;;;;;2.61;100.00;98852.84;5073571;28;20056;-70
2021/01/31 00:40:03;;;;;;;24.13;14.40;;;;;;;2.64;100.00;98857.81;5073168;28;20086;-71
2021/01/31 00:42:47;;;;;;;26.17;15.05;;;;;;;2.66;100.00;98863.78;5074163;28;20409;-70
2021/01/31 00:45:31;;;;;;;;;;;;;;;2.58;100.00;98864.44;5073532;28;20421;-71
2021/01/31 00:48:15;;;;;;;21.20;13.30;;;;;;;2.61;100.00;98863.34;5058972;28;19948;-70
2021/01/31 00:50:59;;;;;;;27.27;15.13;;;;;;;2.59;100.00;98870.50;5074232;28;20051;-70
2021/01/31 00:53:44;;;;;;;26.83;15.20;;;;;;;2.62;100.00;98870.28;5074138;28;20051;-70
2021/01/31 00:56:28;;;;;;;22.92;13.35;;;;;;;2.60;100.00;98882.69;5072886;28;20059;-71
2021/01/31 00:59:12;;;;;;;23.05;13.63;;;;;;;2.67;100.00;98881.22;5073842;28;20543;-70
2021/01/31 01:01:57;;;;;;;21.35;12.85;;;;;;;2.64;100.00;98890.22;5073802;28;20103;-70
2021/01/31 01:04:44;;;;;;;23.60;13.98;;;;;;;2.66;100.00;98884.84;5072772;28;20069;-70
2021/01/31 01:07:28;;;;;;;26.73;13.95;;;;;;;2.67;100.00;98883.88;5073925;28;20051;-71
2021/01/31 01:10:15;;;;;;;26.30;13.85;;;;;;;2.61;100.00;98885.22;5073934;28;20056;-71
2021/01/31 01:13:00;;;;;;;23.10;14.32;;;;;;;2.60;100.00;98888.81;5072681;28;20106;-70
2021/01/31 01:15:43;;;;;;;28.20;15.73;;;;;;;2.66;100.00;98890.94;5094537;22;20113;-68
2021/01/31 01:18:28;;;;;;;25.15;14.15;;;;;;;2.62;100.00;98897.41;5072565;28;20063;-67
2021/01/31 01:21:13;;;;;;;23.10;13.93;;;;;;;2.60;100.00;98896.69;5073550;28;20421;-67
2021/01/31 01:24:01;;;;;;;22.52;13.65;;;;;;;2.63;100.00;98906.16;5071850;28;20101;-67
2021/01/31 01:26:45;;;;;;;23.60;14.35;;;;;;;2.60;100.00;98898.50;5052421;28;20060;-68
2021/01/31 01:29:30;;;;;;;23.48;14.02;;;;;;;2.64;100.00;98905.19;5052423;28;20098;-67
2021/01/31 01:32:15;;;;;;;23.10;14.23;;;;;;;2.65;100.00;98901.59;5052620;28;20044;-67
2021/01/31 01:34:59;;;;;;;22.23;13.77;;;;;;;2.61;100.00;98901.00;5053245;28;20048;-67
2021/01/31 01:37:43;;;;;;;21.27;13.75;;;;;;;2.60;100.00;98903.75;5053588;28;20056;-67
2021/01/31 01:40:29;;;;;;;21.65;12.93;;;;;;;2.61;100.00;98901.00;5038227;28;20079;-67
2021/01/31 01:43:18;;;;;;;21.60;13.65;;;;;;;2.60;100.00;98898.50;5052212;28;20456;-67
2021/01/31 01:46:17;;;;;;;22.83;13.40;;;;;;;2.61;100.00;98906.25;5051936;28;20087;-67
2021/01/31 01:49:09;;;;;;;19.60;12.13;;;;;;;2.57;100.00;98904.00;5053320;28;20117;-67
2021/01/31 01:51:58;;;;;;;19.77;12.27;;;;;;;2.53;100.00;98902.59;5052348;28;20410;-67
2021/01/31 01:54:44;;;;;;;22.42;12.77;;;;;;;2.54;100.00;98906.91;5052232;28;20508;-67
2021/01/31 01:57:33;;;;;;;21.77;12.07;;;;;;;2.49;100.00;98899.41;5052324;28;20421;-67
2021/01/31 02:00:18;;;;;;;20.73;12.20;;;;;;;2.53;100.00;98902.59;5053003;28;20060;-67
2021/01/31 02:03:10;;;;;;;19.55;12.15;;;;;;;2.54;100.00;98896.38;5053037;28;20564;-67
2021/01/31 02:06:00;;;;;;;19.13;12.20;;;;;;;2.56;100.00;98897.09;5051832;28;20463;-68
2021/01/31 02:08:46;;;;;;;19.52;11.73;;;;;;;2.54;100.00;98904.28;5052531;28;20144;-67
2021/01/31 02:11:30;;;;;;;17.10;11.80;;;;;;;2.53;100.00;98890.28;5051891;28;20048;-68
2021/01/31 02:14:14;;;;;;;;;;;;;;;2.47;100.00;98893.44;5052372;28;20110;-68
2021/01/31 02:17:19;;;;;;;17.88;11.13;;;;;;;2.48;100.00;98891.63;5051956;28;19920;-68
2021/01/31 02:20:27;;;;;;;21.35;12.68;;;;;;;2.40;100.00;98883.53;5053114;28;20124;-67
2021/01/31 02:23:29;;;;;;;20.48;12.82;;;;;;;2.49;100.00;98882.75;5051929;28;20117;-67
2021/01/31 02:26:51;;;;;;;18.42;10.98;;;;;;;2.45;100.00;98889.25;5052736;28;20044;-66
2021/01/31 02:30:03;;;;;;;21.98;12.77;;;;;;;2.49;100.00;98886.25;5053299;28;20544;-67
2021/01/31 02:33:26;;;;;;;18.10;11.38;;;;;;;2.48;100.00;98899.50;5052653;28;20050;-67
2021/01/31 02:36:39;;;;;;;16.50;10.52;;;;;;;2.45;100.00;98899.78;5053631;28;20417;-67
2021/01/31 02:39:23;;;;;;;17.85;11.07;;;;;;;2.36;100.00;98900.53;5055864;28;20051;-66
2021/01/31 02:42:34;;;;;;;16.25;11.30;;;;;;;2.35;100.00;98911.16;5056538;28;20090;-67
2021/01/31 02:45:22;;;;;;;17.95;10.93;;;;;;;2.31;100.00;98907.97;5055519;28;20535;-68
2021/01/31 02:48:36;;;;;;;17.70;11.45;;;;;;;2.31;100.00;98915.88;5055501;28;20064;-66
2021/01/31 02:51:29;;;;;;;15.90;10.60;;;;;;;2.33;100.00;98908.69;5055827;28;20051;-67
2021/01/31 02:54:21;;;;;;;20.03;10.67;;;;;;;2.35;100.00;98904.13;5055540;28;20076;-68
2021/01/31 02:57:09;;;;;;;16.45;10.60;;;;;;;2.34;100.00;98905.09;5055385;28;20333;-68
2021/01/31 03:00:24;;;;;;;21.83;12.15;;;;;;;2.37;100.00;98912.72;5055507;28;20567;-68
2021/01/31 03:03:16;;;;;;;18.38;11.65;;;;;;;2.36;100.00;98913.66;5055153;28;20524;-67
2021/01/31 03:06:02;;;;;;;20.67;12.55;;;;;;;2.42;100.00;98916.63;5055069;28;20476;-68
2021/01/31 03:08:48;;;;;;;18.58;11.93;;;;;;;2.44;100.00;98921.78;5041217;28;20044;-68
2021/01/31 03:11:40;;;;;;;17.83;11.55;;;;;;;2.47;100.00;98919.72;5055172;28;20091;-68
2021/01/31 03:14:35;;;;;;;19.35;11.82;;;;;;;2.43;100.00;98922.75;5041160;28;20452;-67
2021/01/31 03:17:37;;;;;;;18.05;10.68;;;;;;;2.48;100.00;98918.78;5054904;28;20047;-68
2021/01/31 03:20:24;;;;;;;16.33;10.65;;;;;;;2.43;100.00;98922.75;5055091;28;20114;-67
2021/01/31 03:23:24;;;;;;;16.50;11.23;;;;;;;2.47;100.00;98921.50;5054736;28;20110;-67
2021/01/31 03:26:20;;;;;;;18.13;10.40;;;;;;;2.38;100.00;98932.78;5054698;28;20052;-67
2021/01/31 03:29:04;;;;;;;18.00;11.15;;;;;;;2.35;100.00;98938.31;5054560;28;20044;-65
2021/01/31 03:31:51;;;;;;;17.90;10.75;;;;;;;2.35;100.00;98934.81;5054687;28;20098;-67
2021/01/31 03:34:42;;;;;;;19.65;12.07;;;;;;;2.43;100.00;98928.00;5054819;28;20103;-66
2021/01/31 03:37:32;;;;;;;17.67;11.40;;;;;;;2.42;100.00;98928.13;5054994;28;20079;-66
2021/01/31 03:40:17;;;;;;;19.83;12.07;;;;;;;2.41;100.00;98940.44;5054834;28;20052;-66
2021/01/31 03:43:02;;;;;;;18.17;11.63;;;;;;;2.42;100.00;98935.03;5054807;28;20052;-67
2021/01/31 03:46:06;;;;;;;21.10;12.70;;;;;;;2.38;100.00;98935.41;5055552;28;20067;-67
2021/01/31 03:49:11;;;;;;;17.45;11.45;;;;;;;2.40;100.00;98936.13;5053383;28;20047;-66
2021/01/31 03:51:55;;;;;;;19.40;11.52;;;;;;;2.41;100.00;98944.84;5054203;28;20059;-66
2021/01/31 03:54:40;;;;;;;18.20;12.32;;;;;;;2.44;100.00;98940.19;5055440;28;20052;-67
2021/01/31 03:57:29;;;;;;;;;;;;;;;2.39;100.00;98934.44;5054811;28;20123;-66
2021/01/31 04:00:17;;;;;;;19.38;11.07;;;;;;;2.39;100.00;98941.53;5040516;28;19919;-67
2021/01/31 04:03:07;;;;;;;17.90;11.73;;;;;;;2.41;100.00;98944.84;5054326;28;20052;-68
2021/01/31 04:06:05;;;;;;;17.58;11.27;;;;;;;2.36;100.00;98953.13;5053945;28;20083;-68
2021/01/31 04:08:54;;;;;;;16.65;11.18;;;;;;;2.45;100.00;98941.84;5053910;28;20135;-67
2021/01/31 04:11:43;;;;;;;18.48;11.88;;;;;;;2.40;100.00;98936.13;5055071;28;20071;-67
2021/01/31 04:14:35;;;;;;;17.92;11.90;;;;;;;2.39;100.00;98944.97;5053805;28;20079;-67
2021/01/31 04:17:21;;;;;;;18.70;10.02;;;;;;;2.39;100.00;98947.59;5054114;28;20512;-66
2021/01/31 04:20:05;;;;;;;19.55;11.80;;;;;;;2.36;100.00;98945.22;5053697;28;20102;-67
2021/01/31 04:22:49;;;;;;;17.67;10.90;;;;;;;2.38;100.00;98934.59;5054789;28;20043;-67
2021/01/31 04:25:34;;;;;;;18.05;11.55;;;;;;;2.43;100.00;98933.25;5053678;28;20573;-67
2021/01/31 04:28:24;;;;;;;18.92;10.48;;;;;;;2.44;100.00;98942.81;5053791;28;20067;-67
2021/01/31 04:31:08;;;;;;;18.50;11.52;;;;;;;2.39;100.00;98938.88;5054541;28;20052;-67
2021/01/31 04:33:52;;;;;;;17.50;11.63;;;;;;;2.44;100.00;98933.13;5054704;28;20207;-67
2021/01/31 04:36:37;;;;;;;17.63;11.35;;;;;;;2.42;100.00;98927.16;5054385;28;20563;-68
2021/01/31 04:39:21;;;;;;;19.23;10.95;;;;;;;2.47;100.00;98928.59;5053613;28;20071;-68
2021/01/31 04:42:06;;;;;;;18.45;11.80;;;;;;;2.49;100.00;98919.59;5053271;28;20044;-67
2021/01/31 04:44:51;;;;;;;16.65;10.85;;;;;;;2.50;100.00;98918.63;5053682;28;20051;-68
2021/01/31 04:47:45;;;;;;;;;;;;;;;2.53;100.00;98918.38;5053855;28;20544;-68
2021/01/31 04:50:33;;;;;;;16.53;9.83;;;;;;;2.51;100.00;98922.94;5039016;28;19920;-68
2021/01/31 04:53:31;;;;;;;16.77;11.10;;;;;;;2.48;100.00;98931.06;5053358;28;20312;-68
2021/01/31 04:56:34;;;;;;;16.17;10.98;;;;;;;2.53;100.00;98945.50;5054189;28;20043;-66
2021/01/31 04:59:27;;;;;;;19.42;11.32;;;;;;;2.56;100.00;98947.91;5052893;28;20047;-68
2021/01/31 05:02:16;;;;;;;18.50;11.73;;;;;;;2.60;100.00;98943.19;5052867;28;20043;-66
2021/01/31 05:05:01;;;;;;;19.77;11.02;;;;;;;2.61;100.00;98948.34;5052969;28;20044;-67
2021/01/31 05:07:51;;;;;;;19.13;11.75;;;;;;;2.62;100.00;98955.28;5053092;28;20437;-66
2021/01/31 05:10:35;;;;;;;18.17;12.20;;;;;;;2.64;100.00;98952.53;5052980;28;20136;-68
2021/01/31 05:13:25;;;;;;;19.08;11.90;;;;;;;2.64;100.00;98952.53;5052964;28;20120;-68
2021/01/31 05:16:11;;;;;;;18.90;11.80;;;;;;;2.61;100.00;98958.06;5053447;28;20044;-68
2021/01/31 05:18:59;;;;;;;18.00;11.55;;;;;;;2.63;100.00;98961.38;5052838;28;20044;-68
2021/01/31 05:21:43;;;;;;;15.00;9.77;;;;;;;2.62;100.00;98950.00;5052829;28;20047;-68
2021/01/31 05:24:27;;;;;;;16.75;10.60;;;;;;;2.58;100.00;98947.75;5053465;28;20508;-67
2021/01/31 05:27:11;;;;;;;16.30;10.57;;;;;;;2.60;100.00;98956.34;5053750;28;20513;-68
2021/01/31 05:29:56;;;;;;;18.65;11.15;;;;;;;2.57;100.00;98951.34;5053704;28;20425;-67
2021/01/31 05:32:58;;;;;;;;;;;;;;;2.56;100.00;98960.22;5052775;28;20120;-67
2021/01/31 05:35:52;;;;;;;18.00;11.60;;;;;;;2.56;100.00;98949.69;5054158;28;19919;-67
2021/01/31 05:38:47;;;;;;;17.42;10.80;;;;;;;2.56;100.00;98954.94;5053338;28;20171;-67
2021/01/31 05:41:37;;;;;;;20.50;11.60;;;;;;;2.54;100.00;98952.44;5038248;28;20064;-68
2021/01/31 05:44:24;;;;;;;18.23;11.50;;;;;;;2.53;100.00;98957.84;5052695;28;20079;-68
2021/01/31 05:47:18;;;;;;;17.08;11.18;;;;;;;2.55;100.00;98967.28;5052507;28;20102;-67
2021/01/31 05:50:19;;;;;;;18.60;11.82;;;;;;;2.61;100.00;98973.84;5052154;28;20048;-67
2021/01/31 05:53:35;;;;;;;18.25;10.45;;;;;;;2.58;100.00;98971.44;5053054;28;20129;-68
2021/01/31 05:56:28;;;;;;;15.18;10.13;;;;;;;2.58;100.00;98963.53;5052072;28;20044;-67
2021/01/31 05:59:14;;;;;;;17.23;11.45;;;;;;;2.58;100.00;98979.31;5052307;28;20175;-68
2021/01/31 06:02:02;;;;;;;17.08;11.18;;;;;;;2.59;100.00;98976.59;5052331;28;20047;-67
2021/01/31 06:04:46;;;;;;;18.88;11.50;;;;;;;2.57;100.00;98977.66;5053170;28;20052;-68
2021/01/31 06:07:30;;;;;;;18.63;11.18;;;;;;;2.58;100.00;98984.59;5053013;28;20135;-68
2021/01/31 06:10:17;;;;;;;19.38;11.93;;;;;;;2.58;100.00;98985.44;5053422;28;20099;-67
2021/01/31 06:13:13;;;;;;;17.70;12.02;;;;;;;2.58;100.00;98988.06;5056307;28;20095;-67
2021/01/31 06:16:00;;;;;;;20.02;11.25;;;;;;;2.59;100.00;98991.53;5055951;28;20043;-68
2021/01/31 06:18:56;;;;;;;17.08;11.50;;;;;;;2.67;100.00;98982.06;5056215;28;20106;-67
2021/01/31 06:21:43;;;;;;;17.45;10.85;;;;;;;2.66;100.00;98988.28;5056430;28;20102;-68
2021/01/31 06:24:49;;;;;;;18.73;12.00;;;;;;;2.66;100.00;98987.44;5057070;28;20459;-68
2021/01/31 06:27:34;;;;;;;21.35;11.68;;;;;;;2.68;100.00;98996.03;5056107;28;20043;-67
2021/01/31 06:30:44;;;;;;;20.27;12.32;;;;;;;2.74;100.00;99013.97;5055877;28;20047;-67
2021/01/31 06:33:29;;;;;;;17.35;11.23;;;;;;;2.65;100.00;99012.06;5056745;28;20056;-67
2021/01/31 06:36:25;;;;;;;18.15;10.90;;;;;;;2.68;100.00;99009.19;5056914;28;20060;-67
2021/01/31 06:39:46;;;;;;;18.05;11.50;;;;;;;2.66;100.00;99013.75;5056007;28;20121;-67
2021/01/31 06:43:00;;;;;;;16.13;10.77;;;;;;;2.61;100.00;99006.22;5056862;28;20118;-67
2021/01/31 06:45:49;;;;;;;17.90;11.88;;;;;;;2.67;100.00;99011.00;5056501;28;20048;-68
2021/01/31 06:48:56;;;;;;;17.55;11.00;;;;;;;2.68;100.00;99022.34;5056828;28;20052;-68
2021/01/31 06:52:01;;;;;;;19.55;11.45;;;;;;;2.66;100.00;99024.28;5055604;28;20048;-67
2021/01/31 06:55:08;;;;;;;17.58;11.23;;;;;;;2.66;100.00;99033.00;5055571;28;20044;-67
2021/01/31 06:58:11;;;;;;;18.80;11.57;;;;;;;2.64;100.00;99036.72;5056365;28;20083;-68
2021/01/31 07:01:05;;;;;;;17.50;11.90;;;;;;;2.65;100.00;99044.47;5055737;28;20083;-67
2021/01/31 07:04:01;;;;;;;16.88;11.27;;;;;;;2.63;100.00;99045.56;5055472;28;20090;-68
2021/01/31 07:06:57;;;;;;;17.85;11.55;;;;;;;2.70;100.00;99036.19;5055281;28;20052;-66
2021/01/31 07:09:51;;;;;;;17.52;10.98;;;;;;;2.70;100.00;99041.47;5055889;28;20570;-67
2021/01/31 07:13:02;;;;;;;19.77;11.45;;;;;;;2.69;100.00;99051.16;5056209;28;20048;-67
2021/01/31 07:16:11;;;;;;;17.88;11.82;;;;;;;2.72;100.00;99050.09;5052792;28;20102;-66
2021/01/31 07:19:04;;;;;;;18.48;11.00;;;;;;;2.77;100.00;99048.75;5055129;28;20062;-67
2021/01/31 07:21:47;;;;;;;17.38;10.77;;;;;;;2.76;100.00;99043.59;5054254;28;20126;-67
2021/01/31 07:24:35;;;;;;;17.80;11.30;;;;;;;2.77;100.00;99054.03;5054878;28;20105;-67
2021/01/31 07:27:23;;;;;;;20.50;12.30;;;;;;;2.77;100.00;99048.75;5055728;28;20052;-67
2021/01/31 07:30:14;;;;;;;18.63;11.23;;;;;;;2.78;100.00;99050.44;5040545;28;20090;-67
2021/01/31 07:33:17;;;;;;;18.52;11.82;;;;;;;2.78;100.00;99044.31;5053878;28;20114;-67
2021/01/31 07:36:05;;;;;;;18.83;11.45;;;;;;;2.79;100.00;99045.97;5039980;28;20044;-67
2021/01/31 07:38:52;;;;;;;17.80;11.25;;;;;;;2.79;100.00;99040.72;5053823;28;20091;-67
2021/01/31 07:41:44;;;;;;;18.80;11.75;;;;;;;2.80;100.00;99043.25;5054099;28;20044;-67
2021/01/31 07:44:32;;;;;;;17.58;11.02;;;;;;;2.89;100.00;99053.00;5053902;28;20052;-68
2021/01/31 07:47:22;;;;;;;18.15;11.60;;;;;;;2.90;100.00;99059.94;5087092;22;20056;-71
2021/01/31 07:50:06;;;;;;;18.08;10.65;;;;;;;2.96;100.00;99063.88;5073652;28;20075;-71
2021/01/31 07:52:57;;;;;;;17.77;11.65;;;;;;;2.96;100.00;99055.97;5074489;28;20071;-70
2021/01/31 07:55:42;;;;;;;18.83;12.13;;;;;;;3.04;100.00;99062.25;5074648;28;20047;-69
2021/01/31 07:58:32;;;;;;;16.77;11.00;;;;;;;3.11;99.83;99073.13;5039373;28;20128;-70
2021/01/31 08:01:44;;;;;;;17.98;11.45;;;;;;;3.09;98.96;99064.53;5053547;28;20098;-70
2021/01/31 08:04:34;;;;;;;17.40;11.32;;;;;;;3.17;99.13;99059.47;5039238;28;20192;-70
2021/01/31 08:08:01;;;;;;;17.52;11.10;;;;;;;3.17;99.41;99062.09;5053092;28;20156;-69
2021/01/31 08:10:49;;;;;;;18.48;11.23;;;;;;;3.17;99.46;99070.84;5047810;28;20393;-70
2021/01/31 08:13:42;;;;;;;18.70;12.20;;;;;;;3.24;98.26;99064.09;5054173;28;20087;-69
2021/01/31 08:16:48;;;;;;;16.73;10.50;;;;;;;3.24;98.13;99073.81;5038945;28;20103;-70
2021/01/31 08:19:32;;;;;;;16.52;10.48;;;;;;;3.28;98.38;99070.78;5053969;28;20525;-69
2021/01/31 08:22:33;;;;;;;18.20;12.00;;;;;;;3.26;98.64;99074.50;5053015;28;20056;-69
2021/01/31 08:25:17;;;;;;;18.48;11.38;;;;;;;3.32;97.64;99073.97;5053130;28;20536;-69
2021/01/31 08:28:01;;;;;;;17.00;11.13;;;;;;;3.34;97.26;99074.72;5053882;28;20063;-69
2021/01/31 08:31:10;;;;;;;17.23;11.75;;;;;;;3.40;98.03;99079.44;5054000;28;20048;-70
2021/01/31 08:33:59;;;;;;;17.38;11.55;;;;;;;3.42;96.92;99094.16;5038533;28;20048;-69
2021/01/31 08:36:43;;;;;;;16.73;10.98;;;;;;;3.45;96.42;99093.09;5052927;28;20109;-69
2021/01/31 08:39:30;;;;;;;20.48;11.82;;;;;;;3.45;98.35;99098.34;5052612;28;20460;-70
2021/01/31 08:42:14;;;;;;;16.60;10.85;;;;;;;3.53;95.66;99096.75;5053048;28;20572;-69
2021/01/31 08:44:58;;;;;;;17.60;11.48;;;;;;;3.51;96.16;99106.56;5053561;28;20476;-70
2021/01/31 08:47:43;;;;;;;17.60;11.57;;;;;;;3.50;95.66;99111.97;5053365;28;20111;-70
2021/01/31 08:50:27;;;;;;;17.27;11.02;;;;;;;3.49;95.51;99102.38;5053571;28;20052;-69
2021/01/31 08:53:12;;;;;;;19.75;10.95;;;;;;;3.53;96.58;99103.81;5053588;28;20146;-69
2021/01/31 08:56:11;;;;;;;18.13;11.98;;;;;;;3.53;96.00;99098.56;5038379;28;20121;-69
2021/01/31 08:58:56;;;;;;;18.80;11.30;;;;;;;3.55;95.68;99093.97;5038417;28;20079;-70
2021/01/31 09:01:46;;;;;;;18.60;11.75;;;;;;;3.63;96.76;99096.78;5053258;28;20116;-69
2021/01/31 09:04:30;;;;;;;18.38;11.07;;;;;;;3.62;95.76;99106.50;5038303;28;20055;-69
2021/01/31 09:07:34;;;;;;;16.33;11.57;;;;;;;3.66;95.86;99102.63;5052294;28;20143;-69
2021/01/31 09:10:24;;;;;;;17.48;11.35;;;;;;;3.75;94.55;99107.13;5052325;28;20048;-69
2021/01/31 09:13:11;;;;;;;18.25;11.93;;;;;;;3.77;95.75;99104.38;5053202;28;20449;-69
2021/01/31 09:16:09;;;;;;;17.30;11.80;;;;;;;3.82;94.67;99102.19;5052031;28;20048;-69
2021/01/31 09:19:10;;;;;;;19.95;11.98;;;;;;;3.88;94.50;99099.84;5052894;28;20095;-69
2021/01/31 09:22:01;;;;;;;19.38;11.50;;;;;;;4.03;93.02;99098.56;5053073;28;20044;-69
2021/01/31 09:24:51;;;;;;;18.40;11.27;;;;;;;4.05;93.17;99101.88;5051878;28;20044;-69
2021/01/31 09:27:41;;;;;;;18.77;11.57;;;;;;;4.13;92.60;99096.81;5051889;28;20043;-69
2021/01/31 09:30:27;;;;;;;20.00;13.75;;;;;;;4.11;91.41;99089.97;5053007;28;20540;-68
2021/01/31 09:33:18;;;;;;;50.70;32.25;;;;;;;4.12;93.39;99083.75;5051927;28;20083;-70
2021/01/31 09:36:16;;;;;;;64.90;35.65;;;;;;;4.29;91.76;99085.75;5051793;28;20043;-69
2021/01/31 09:39:06;;;;;;;23.63;14.82;;;;;;;4.31;92.25;99089.09;5051813;28;20048;-69
2021/01/31 09:41:52;;;;;;;54.17;30.70;;;;;;;4.35;91.73;99086.06;5051865;28;20079;-69
2021/01/31 09:44:37;;;;;;;84.07;48.60;;;;;;;4.50;91.70;99084.72;5051736;28;20056;-69
2021/01/31 09:47:22;;;;;;;23.30;15.73;;;;;;;4.71;90.85;99092.53;5052135;28;20084;-68
2021/01/31 09:50:11;;;;;;;21.23;14.75;;;;;;;4.71;89.41;99097.81;5052927;28;20056;-69
2021/01/31 09:52:56;;;;;;;20.92;15.13;;;;;;;4.81;89.24;99094.25;5051119;28;20102;-69
2021/01/31 09:55:43;;;;;;;19.15;12.77;;;;;;;4.87;89.30;99077.03;5051356;28;20052;-69
2021/01/31 09:58:56;;;;;;;17.33;11.65;;;;;;;4.90;86.23;99100.50;5052342;28;20079;-69
2021/01/31 10:01:40;;;;;;;18.50;13.38;;;;;;;4.98;87.23;99101.47;5047859;28;20503;-68
2021/01/31 10:04:25;;;;;;;28.33;18.95;;;;;;;4.99;88.72;99096.06;5052330;28;20091;-68
2021/01/31 10:07:33;;;;;;;23.25;14.63;;;;;;;4.96;87.36;99103.41;5052214;28;20056;-67
2021/01/31 10:10:23;;;;;;;22.02;14.35;;;;;;;5.01;86.43;99104.69;5037277;28;20104;-68
2021/01/31 10:13:32;;;;;;;21.13;13.80;;;;;;;4.87;86.32;99106.88;5051097;28;20048;-68
2021/01/31 10:16:20;;;;;;;37.90;23.42;;;;;;;4.80;88.31;99097.81;5052535;28;20073;-70
2021/01/31 10:19:16;;;;;;;21.15;13.25;;;;;;;4.70;86.97;99096.16;5052370;28;20493;-68
2021/01/31 10:22:00;;;;;;;23.58;15.23;;;;;;;4.71;88.66;99088.13;5051183;28;20132;-69
2021/01/31 10:24:46;;;;;;;34.17;18.25;;;;;;;4.77;89.40;99082.25;5051527;28;20466;-70
2021/01/31 10:27:33;;;;;;;22.25;14.02;;;;;;;4.80;88.02;99087.25;5051129;28;20044;-69
2021/01/31 10:30:21;;;;;;;24.35;16.58;;;;;;;4.88;89.56;99079.50;5052286;28;20178;-70
2021/01/31 10:33:07;;;;;;;20.25;13.68;;;;;;;5.02;87.33;99085.22;5050967;28;20110;-70
2021/01/31 10:35:51;;;;;;;18.80;12.10;;;;;;;5.12;86.63;99087.88;5037091;28;20051;-70
2021/01/31 10:38:42;;;;;;;22.77;14.07;;;;;;;5.15;88.04;99091.06;5052214;28;20064;-70
2021/01/31 10:41:26;;;;;;;20.17;12.75;;;;;;;5.24;86.26;99070.91;5052012;28;20071;-70
2021/01/31 10:44:21;;;;;;;49.13;32.75;;;;;;;5.28;87.09;99070.50;5037116;28;20079;-70
2021/01/31 10:47:05;;;;;;;37.70;24.85;;;;;;;5.26;86.12;99074.25;5051819;28;20414;-70
2021/01/31 10:49:50;;;;;;;20.92;15.50;;;;;;;5.27;87.04;99067.97;5051970;28;20064;-68
2021/01/31 10:52:34;;;;;;;25.42;17.58;;;;;;;5.30;87.14;99076.47;5050976;28;20493;-70
2021/01/31 10:55:18;;;;;;;22.75;14.30;;;;;;;5.35;87.74;99073.41;5051041;28;20091;-70
2021/01/31 10:58:02;;;;;;;20.10;14.05;;;;;;;5.29;87.17;99074.81;5054783;28;20056;-70
2021/01/31 11:00:46;;;;;;;22.80;15.52;;;;;;;5.25;87.02;99068.13;5054610;28;20355;-70
2021/01/31 11:03:30;;;;;;;26.42;16.35;;;;;;;5.24;88.84;99074.38;5055514;28;20086;-70
2021/01/31 11:06:15;;;;;;;78.72;43.85;;;;;;;5.32;88.78;99061.31;5055692;28;20044;-70
2021/01/31 11:09:00;;;;;;;214.07;120.63;;;;;;;5.25;88.86;99062.81;5054382;28;20524;-71
2021/01/31 11:11:44;;;;;;;50.90;33.33;;;;;;;5.23;88.08;99059.50;5055619;28;20084;-70
2021/01/31 11:14:28;;;;;;;28.80;20.27;;;;;;;5.26;87.03;99053.09;5055415;28;20146;-70
2021/01/31 11:17:13;;;;;;;18.38;13.18;;;;;;;5.20;87.81;99061.56;5055339;28;20044;-71
2021/01/31 11:19:56;;;;;;;29.33;20.67;;;;;;;5.19;89.12;99065.19;5055506;28;20485;-70
2021/01/31 11:22:40;;;;;;;19.52;14.15;;;;;;;5.15;88.80;99067.28;5054580;28;20136;-71
2021/01/31 11:25:24;;;;;;;25.38;15.25;;;;;;;5.06;89.69;99052.28;5054181;28;20086;-71
2021/01/31 11:28:08;;;;;;;33.25;20.17;;;;;;;5.11;90.80;99050.06;5055222;28;20604;-70
2021/01/31 11:30:52;;;;;;;32.20;23.88;;;;;;;5.23;89.51;99043.66;5040033;28;20524;-71
2021/01/31 11:33:37;;;;;;;21.27;14.60;;;;;;;5.31;88.53;99046.44;5054249;28;20051;-70
2021/01/31 11:36:22;;;;;;;36.88;26.23;;;;;;;5.41;88.31;99047.25;5055035;28;20099;-71
2021/01/31 11:39:08;;;;;;;23.38;15.35;;;;;;;5.43;88.12;99044.47;5054939;28;20390;-71
2021/01/31 11:41:52;;;;;;;45.45;34.33;;;;;;;5.48;88.57;99048.34;5054045;28;20043;-71
2021/01/31 11:44:36;;;;;;;33.67;24.63;;;;;;;5.46;87.63;99039.72;5053990;28;20414;-70
2021/01/31 11:47:20;;;;;;;33.92;24.08;;;;;;;5.34;89.77;99040.84;5053620;28;20520;-70
2021/01/31 11:50:05;;;;;;;33.00;24.45;;;;;;;5.40;89.06;99047.38;5053886;28;20198;-70
2021/01/31 11:52:50;;;;;;;21.20;15.07;;;;;;;5.38;88.29;99038.75;5053796;28;20421;-70
2021/01/31 11:55:34;;;;;;;25.52;17.15;;;;;;;5.41;88.94;99030.53;5053845;28;20191;-69
2021/01/31 11:58:18;;;;;;;24.95;16.67;;;;;;;5.47;90.29;99030.84;5054593;28;20136;-70
2021/01/31 12:01:02;;;;;;;26.27;16.50;;;;;;;5.50;89.88;99033.19;5054458;28;20051;-71
2021/01/31 12:03:46;;;;;;;32.72;23.20;;;;;;;5.45;89.18;99031.94;5054741;28;20056;-70
2021/01/31 12:06:30;;;;;;;23.38;15.95;;;;;;;5.50;89.03;99027.91;5054316;28;20052;-70
2021/01/31 12:09:14;;;;;;;;;;;;;;;5.50;88.13;99029.69;5053192;28;20135;-70
2021/01/31 12:11:58;;;;;;;25.13;17.38;;;;;;;5.51;89.45;99026.91;5053251;28;19962;-70
2021/01/31 12:14:42;;;;;;;35.67;24.25;;;;;;;5.50;89.05;99033.19;5053197;28;20060;-70
2021/01/31 12:17:26;;;;;;;21.13;14.10;;;;;;;5.45;89.55;99038.03;5054153;28;20074;-70
2021/01/31 12:20:13;;;;;;;18.58;12.30;;;;;;;5.27;90.22;99029.19;5039311;28;20072;-70
2021/01/31 12:22:57;;;;;;;25.92;15.63;;;;;;;5.25;89.58;99031.13;5053052;28;20067;-70
2021/01/31 12:25:41;;;;;;;33.03;19.75;;;;;;;5.24;90.45;99026.81;5054239;28;20409;-70
2021/01/31 12:28:25;;;;;;;29.88;18.02;;;;;;;5.23;90.37;99022.50;5054194;28;20110;-70
2021/01/31 12:31:09;;;;;;;23.70;15.40;;;;;;;5.25;89.64;99023.19;5053051;28;20060;-70
2021/01/31 12:33:54;;;;;;;38.53;22.25;;;;;;;5.20;90.49;99017.50;5053141;28;20068;-70
2021/01/31 12:36:39;;;;;;;55.38;32.35;;;;;;;5.22;90.91;99015.56;5052996;28;20052;-70
2021/01/31 12:39:23;;;;;;;27.13;16.48;;;;;;;5.18;90.49;99013.34;5038795;28;20118;-70
2021/01/31 12:42:07;;;;;;;29.92;18.75;;;;;;;5.23;90.24;99019.88;5053869;28;20048;-70
2021/01/31 12:44:51;;;;;;;102.60;52.70;;;;;;;5.31;91.39;99013.88;5054150;28;20143;-70
2021/01/31 12:47:35;;;;;;;29.58;18.77;;;;;;;5.27;90.83;99008.06;5052507;28;20131;-69
2021/01/31 12:50:21;;;;;;;28.58;20.75;;;;;;;5.27;91.53;99005.41;5038417;28;20171;-70
2021/01/31 12:53:05;;;;;;;31.38;23.67;;;;;;;5.29;91.79;99011.38;5053641;28;20060;-70
2021/01/31 12:55:49;;;;;;;20.90;14.05;;;;;;;5.29;91.99;99006.09;5052576;28;20140;-70
2021/01/31 12:58:34;;;;;;;23.02;15.10;;;;;;;5.28;91.48;99004.44;5053322;28;20103;-70
2021/01/31 13:01:18;;;;;;;18.55;13.15;;;;;;;5.34;91.41;98997.75;5052324;28;20130;-70
2021/01/31 13:04:01;;;;;;;25.27;16.85;;;;;;;5.28;91.98;98993.03;5053346;28;20086;-70
2021/01/31 13:06:46;;;;;;;59.70;43.63;;;;;;;5.30;92.49;98991.91;5052376;28;20423;-70